Time;durP1;ratioP1;P1;durP2;ratioP2;P2;SDS_P1;SDS_P2;PMS_P1;PMS_P2;Temp;Humidity;BMP_temperature;BMP_pressure;BME280_temperature;BME280_humidity;BME280_pressure;Samples;Min_cycle;Max_cycle;Signal;HPM_P1;HPM_P2
2023/10/24 00:01:11;;;;;;;4.20;1.90;;;12.60;99.90;;;;;;5036652;28;20041;-52
2023/10/24 00:03:37;;;;;;;4.68;1.80;;;12.70;99.90;;;;;;5036606;28;20030;-50
2023/10/24 00:06:03;;;;;;;3.63;1.80;;;12.60;99.90;;;;;;5035976;28;20030;-53
2023/10/24 00:08:29;;;;;;;4.95;1.90;;;12.70;99.90;;;;;;5035606;28;20040;-52
2023/10/24 00:11:04;;;;;;;3.67;1.65;;;12.70;99.90;;;;;;5035060;28;20068;-49
2023/10/24 00:13:31;;;;;;;3.70;1.83;;;12.70;99.90;;;;;;5035578;28;20056;-51
2023/10/24 00:16:00;;;;;;;3.28;1.90;;;12.80;99.90;;;;;;5035507;28;20029;-51
2023/10/24 00:18:26;;;;;;;5.45;1.58;;;12.80;99.90;;;;;;5035173;28;20030;-51
2023/10/24 00:20:52;;;;;;;3.50;1.65;;;12.80;99.90;;;;;;5035349;28;20040;-54
2023/10/24 00:23:18;;;;;;;4.18;2.05;;;12.80;99.90;;;;;;5036280;28;20025;-54
2023/10/24 00:25:43;;;;;;;6.05;2.10;;;12.90;99.90;;;;;;5035247;28;20179;-50
2023/10/24 00:28:09;;;;;;;3.47;1.50;;;12.90;99.90;;;;;;5035349;28;20030;-53
2023/10/24 00:30:35;;;;;;;4.28;1.95;;;12.90;99.90;;;;;;5001187;28;20068;-55
2023/10/24 00:33:00;;;;;;;5.03;2.05;;;12.90;99.90;;;;;;5017641;28;20044;-53
2023/10/24 00:35:26;;;;;;;3.40;1.80;;;13.00;99.90;;;;;;5035326;28;20128;-51
2023/10/24 00:37:52;;;;;;;3.70;1.80;;;13.00;99.90;;;;;;5017390;28;20036;-55
2023/10/24 00:40:19;;;;;;;4.57;1.65;;;13.00;99.90;;;;;;5034922;28;20051;-52
2023/10/24 00:42:45;;;;;;;6.10;2.08;;;13.00;99.90;;;;;;5017387;28;20030;-55
2023/10/24 00:45:10;;;;;;;4.68;1.63;;;13.00;99.90;;;;;;5017210;28;20033;-55
2023/10/24 00:47:38;;;;;;;3.95;1.63;;;13.00;99.90;;;;;;5034031;28;20393;-53
2023/10/24 00:50:05;;;;;;;5.15;1.70;;;13.10;99.90;;;;;;5016464;28;20454;-55
2023/10/24 00:52:31;;;;;;;4.53;1.67;;;13.00;99.90;;;;;;5034365;28;20026;-53
2023/10/24 00:54:57;;;;;;;4.05;1.98;;;13.00;99.90;;;;;;5033649;28;20041;-55
2023/10/24 00:57:24;;;;;;;4.10;1.95;;;13.00;99.90;;;;;;5034333;28;20028;-55
2023/10/24 00:59:50;;;;;;;5.78;1.80;;;13.10;99.90;;;;;;5016324;28;20033;-53
2023/10/24 01:02:16;;;;;;;4.05;2.10;;;13.10;99.90;;;;;;5000605;28;20033;-55
2023/10/24 01:04:43;;;;;;;5.35;1.80;;;13.10;99.90;;;;;;5016311;28;20025;-54
2023/10/24 01:07:08;;;;;;;5.18;1.90;;;13.10;99.90;;;;;;5033889;28;20083;-55
2023/10/24 01:09:34;;;;;;;3.85;1.83;;;13.10;99.90;;;;;;5015870;28;20029;-55
2023/10/24 01:12:00;;;;;;;4.32;1.90;;;13.10;99.90;;;;;;5033792;28;20029;-55
2023/10/24 01:14:28;;;;;;;5.68;1.80;;;13.10;99.90;;;;;;5016306;28;20029;-55
2023/10/24 01:16:53;;;;;;;4.97;2.50;;;13.10;99.90;;;;;;5033557;28;20044;-55
2023/10/24 01:19:19;;;;;;;5.15;2.03;;;13.10;99.90;;;;;;4999266;28;20371;-55
2023/10/24 01:21:46;;;;;;;3.20;1.95;;;13.10;99.90;;;;;;5033469;28;20025;-54
2023/10/24 01:24:16;;;;;;;4.15;2.20;;;13.10;99.90;;;;;;5016541;28;20052;-55
2023/10/24 01:26:42;;;;;;;6.10;2.15;;;13.10;99.90;;;;;;5033652;28;20048;-55
2023/10/24 01:29:09;;;;;;;5.32;2.25;;;13.20;99.90;;;;;;5033694;28;20036;-55
2023/10/24 01:31:35;;;;;;;3.92;1.95;;;13.20;99.90;;;;;;5016086;28;20071;-54
2023/10/24 01:34:00;;;;;;;9.02;2.55;;;13.20;99.90;;;;;;5015596;28;20065;-55
2023/10/24 01:36:26;;;;;;;4.05;2.10;;;13.10;99.90;;;;;;5015058;28;20052;-55
2023/10/24 01:38:52;;;;;;;2.92;2.00;;;13.20;99.90;;;;;;4999672;28;20026;-55
2023/10/24 01:41:18;;;;;;;4.35;1.95;;;13.20;99.90;;;;;;5015743;28;20039;-55
2023/10/24 01:43:43;;;;;;;4.40;1.95;;;13.20;99.90;;;;;;5017159;28;20032;-50
2023/10/24 01:46:09;;;;;;;6.50;2.40;;;13.20;99.90;;;;;;5016710;28;20060;-53
2023/10/24 01:48:34;;;;;;;4.25;2.15;;;13.20;99.90;;;;;;5016150;28;20045;-51
2023/10/24 01:51:00;;;;;;;4.28;2.10;;;13.10;99.90;;;;;;5016419;28;20508;-52
2023/10/24 01:53:26;;;;;;;3.75;2.05;;;13.20;99.90;;;;;;5034423;28;20053;-53
2023/10/24 01:55:52;;;;;;;7.28;2.63;;;13.20;99.90;;;;;;5016358;28;20044;-54
2023/10/24 01:58:17;;;;;;;4.55;2.33;;;13.20;99.90;;;;;;5016490;28;20048;-49
2023/10/24 02:00:43;;;;;;;3.35;1.88;;;13.20;99.90;;;;;;5018032;28;20030;-53
2023/10/24 02:03:08;;;;;;;6.18;2.00;;;13.20;99.90;;;;;;5037938;28;20363;-53
2023/10/24 02:05:35;;;;;;;4.25;1.88;;;13.20;99.90;;;;;;5003061;28;20470;-54
2023/10/24 02:08:01;;;;;;;4.22;1.92;;;13.20;99.90;;;;;;5019304;28;20037;-54
2023/10/24 02:10:26;;;;;;;2.70;1.70;;;13.20;99.90;;;;;;5036902;28;20052;-53
2023/10/24 02:12:52;;;;;;;4.65;2.30;;;13.20;99.90;;;;;;5020066;28;20037;-50
2023/10/24 02:15:18;;;;;;;3.97;1.90;;;13.30;99.90;;;;;;5037942;28;20033;-52
2023/10/24 02:17:43;;;;;;;4.30;1.83;;;13.30;99.90;;;;;;5020085;28;20025;-53
2023/10/24 02:20:09;;;;;;;4.72;1.85;;;13.40;99.90;;;;;;5020278;28;20022;-53
2023/10/24 02:22:35;;;;;;;4.05;1.95;;;13.40;99.90;;;;;;5019992;28;20049;-54
2023/10/24 02:25:01;;;;;;;4.57;1.60;;;13.40;99.90;;;;;;5037465;28;20410;-53
2023/10/24 02:27:27;;;;;;;5.43;1.60;;;13.40;99.90;;;;;;5037601;28;20063;-54
2023/10/24 02:29:53;;;;;;;4.57;1.52;;;13.40;99.90;;;;;;5019946;28;20040;-54
2023/10/24 02:32:19;;;;;;;4.97;1.70;;;13.40;99.90;;;;;;5019968;28;20481;-54
2023/10/24 02:34:49;;;;;;;3.90;1.80;;;13.40;99.90;;;;;;5020282;28;20033;-54
2023/10/24 02:37:15;;;;;;;7.13;1.67;;;13.30;99.90;;;;;;5020060;28;20033;-54
2023/10/24 02:39:41;;;;;;;4.25;1.30;;;13.40;99.90;;;;;;5003550;28;20026;-52
2023/10/24 02:42:07;;;;;;;6.47;1.40;;;13.30;99.90;;;;;;5019982;28;20552;-54
2023/10/24 02:44:33;;;;;;;6.13;1.50;;;13.40;99.90;;;;;;5019373;28;20220;-51
2023/10/24 02:46:59;;;;;;;3.05;1.35;;;13.40;99.90;;;;;;5019485;28;20060;-50
2023/10/24 02:49:25;;;;;;;4.60;1.30;;;13.40;99.90;;;;;;5019820;28;20485;-53
2023/10/24 02:51:51;;;;;;;2.35;1.38;;;13.40;99.90;;;;;;5037036;28;20038;-53
2023/10/24 02:54:17;;;;;;;2.35;1.27;;;13.40;99.90;;;;;;5019245;28;20033;-50
2023/10/24 02:56:42;;;;;;;3.80;1.58;;;13.40;99.90;;;;;;5019368;28;20087;-50
2023/10/24 02:59:08;;;;;;;2.03;1.42;;;13.40;99.90;;;;;;5018842;28;20033;-53
2023/10/24 03:01:35;;;;;;;5.05;1.38;;;13.40;99.90;;;;;;5037027;28;20033;-54
2023/10/24 03:04:01;;;;;;;4.63;1.77;;;13.40;99.90;;;;;;5019065;28;20029;-54
2023/10/24 03:06:27;;;;;;;1.77;1.30;;;13.30;99.90;;;;;;5036256;28;20056;-53
2023/10/24 03:08:52;;;;;;;2.08;1.30;;;13.30;99.90;;;;;;5018319;28;20025;-54
2023/10/24 03:11:25;;;;;;;2.65;1.40;;;13.30;99.90;;;;;;5018274;28;20048;-49
2023/10/24 03:13:54;;;;;;;4.40;1.27;;;13.30;99.90;;;;;;5019183;28;20045;-53
2023/10/24 03:16:20;;;;;;;;;;;13.30;99.90;;;;;;5018843;28;20116;-50
2023/10/24 03:18:45;;;;;;;5.03;1.30;;;13.30;99.90;;;;;;5018673;28;20366;-52
2023/10/24 03:21:11;;;;;;;2.45;1.30;;;13.20;99.90;;;;;;5036737;28;20021;-54
2023/10/24 03:23:37;;;;;;;2.00;1.15;;;13.20;99.90;;;;;;5018642;28;20033;-55
2023/10/24 03:26:06;;;;;;;3.58;1.20;;;13.30;99.90;;;;;;5018060;28;20060;-53
2023/10/24 03:28:32;;;;;;;2.30;1.27;;;13.20;99.90;;;;;;5035892;28;20025;-54
2023/10/24 03:31:06;;;;;;;6.95;1.92;;;13.20;99.90;;;;;;5036076;28;20541;-52
2023/10/24 03:33:32;;;;;;;2.78;1.20;;;13.20;99.90;;;;;;5036667;28;20489;-55
2023/10/24 03:35:58;;;;;;;3.50;1.27;;;13.20;99.90;;;;;;5018257;28;20156;-55
2023/10/24 03:38:25;;;;;;;1.40;1.10;;;13.20;99.90;;;;;;5036279;28;20022;-53
2023/10/24 03:40:51;;;;;;;6.07;1.45;;;13.30;99.90;;;;;;5035771;28;20041;-55
2023/10/24 03:43:16;;;;;;;1.58;0.93;;;13.20;99.90;;;;;;5037020;28;20470;-53
2023/10/24 03:45:42;;;;;;;3.10;1.10;;;13.20;99.90;;;;;;5037888;28;20035;-52
2023/10/24 03:48:08;;;;;;;4.28;1.60;;;13.20;99.90;;;;;;5038452;28;20048;-53
2023/10/24 03:50:37;;;;;;;3.28;1.20;;;13.10;99.90;;;;;;5042603;28;20037;-53
2023/10/24 03:53:04;;;;;;;3.20;1.30;;;13.10;99.90;;;;;;5035990;28;20037;-54
2023/10/24 03:55:30;;;;;;;4.20;1.30;;;13.20;99.90;;;;;;5044304;28;20041;-50
2023/10/24 03:57:56;;;;;;;5.80;1.00;;;13.10;99.90;;;;;;5046732;28;20040;-52
2023/10/24 04:00:22;;;;;;;5.20;1.25;;;13.10;99.90;;;;;;5037353;28;20029;-50
2023/10/24 04:02:55;;;;;;;2.78;1.17;;;13.10;99.90;;;;;;5045629;28;20406;-52
2023/10/24 04:05:21;;;;;;;2.67;1.25;;;13.10;99.90;;;;;;5035408;28;20276;-53
2023/10/24 04:07:47;;;;;;;2.78;1.10;;;13.10;99.90;;;;;;5038213;28;20078;-54
2023/10/24 04:10:15;;;;;;;2.70;1.05;;;13.10;99.90;;;;;;5040228;28;20128;-53
2023/10/24 04:12:41;;;;;;;2.83;1.40;;;13.10;99.90;;;;;;5046573;28;20032;-54
2023/10/24 04:15:08;;;;;;;2.25;1.17;;;13.10;99.90;;;;;;5043950;28;20654;-50
2023/10/24 04:17:49;;;;;;;3.28;1.30;;;13.10;99.90;;;;;;5013778;28;20124;-54
2023/10/24 04:20:14;;;;;;;2.35;1.20;;;13.00;99.90;;;;;;5036393;28;20045;-54
2023/10/24 04:22:40;;;;;;;3.63;1.50;;;13.10;99.90;;;;;;5049456;28;20033;-54
2023/10/24 04:25:06;;;;;;;4.07;1.30;;;13.10;99.90;;;;;;5044094;28;20048;-54
2023/10/24 04:27:32;;;;;;;4.82;1.42;;;13.10;99.90;;;;;;5045716;28;20032;-53
2023/10/24 04:29:58;;;;;;;5.03;1.83;;;13.10;99.90;;;;;;5048075;28;20052;-52
2023/10/24 04:32:24;;;;;;;5.55;2.00;;;13.10;99.90;;;;;;5051358;28;20025;-53
2023/10/24 04:34:51;;;;;;;4.18;1.70;;;13.00;99.90;;;;;;5045370;28;20397;-52
2023/10/24 04:37:18;;;;;;;1.70;0.80;;;13.00;99.90;;;;;;5051314;28;20040;-54
2023/10/24 04:39:44;;;;;;;1.63;0.82;;;13.10;99.90;;;;;;5049136;28;20028;-53
2023/10/24 04:42:10;;;;;;;2.80;1.00;;;13.00;99.90;;;;;;5051849;28;20025;-53
2023/10/24 04:44:36;;;;;;;1.75;0.90;;;13.10;99.90;;;;;;5044677;28;20515;-52
2023/10/24 04:47:02;;;;;;;3.10;0.80;;;13.10;99.90;;;;;;5042783;28;20040;-53
2023/10/24 04:49:27;;;;;;;3.15;0.88;;;13.10;99.90;;;;;;5047487;28;20052;-55
2023/10/24 04:51:53;;;;;;;1.83;0.75;;;13.00;99.90;;;;;;5045977;28;20033;-55
2023/10/24 04:54:19;;;;;;;1.50;0.80;;;12.90;99.90;;;;;;5041542;28;20026;-53
2023/10/24 04:56:44;;;;;;;0.80;0.73;;;13.00;99.90;;;;;;5043833;28;20360;-51
2023/10/24 04:59:10;;;;;;;1.40;0.77;;;12.90;99.90;;;;;;5016127;28;20115;-52
2023/10/24 05:01:38;;;;;;;0.75;0.68;;;12.90;99.90;;;;;;5047004;28;20112;-54
2023/10/24 05:04:05;;;;;;;1.42;0.70;;;13.00;99.90;;;;;;5041356;28;20057;-52
2023/10/24 05:06:31;;;;;;;2.38;0.68;;;13.00;99.90;;;;;;5037243;28;20075;-54
2023/10/24 05:08:57;;;;;;;2.92;1.00;;;12.90;99.90;;;;;;5041580;28;20092;-54
2023/10/24 05:11:22;;;;;;;4.43;0.88;;;13.00;99.90;;;;;;5041420;28;20095;-53
2023/10/24 05:13:49;;;;;;;1.30;0.70;;;12.90;99.90;;;;;;5043693;28;20371;-53
2023/10/24 05:16:15;;;;;;;0.50;0.50;;;12.90;99.90;;;;;;5027690;28;20032;-54
2023/10/24 05:18:40;;;;;;;1.50;0.77;;;12.90;99.90;;;;;;5032192;28;20021;-53
2023/10/24 05:21:06;;;;;;;0.85;0.70;;;12.90;99.90;;;;;;5044550;28;20039;-51
2023/10/24 05:23:31;;;;;;;2.05;1.00;;;12.90;99.90;;;;;;5033181;28;20021;-54
2023/10/24 05:25:57;;;;;;;1.80;0.70;;;12.90;99.90;;;;;;5052829;28;20486;-52
2023/10/24 05:28:23;;;;;;;3.47;0.90;;;12.90;99.90;;;;;;5043259;28;20025;-53
2023/10/24 05:30:49;;;;;;;1.00;0.65;;;12.90;99.90;;;;;;5014217;28;20060;-54
2023/10/24 05:33:14;;;;;;;0.65;0.52;;;12.80;99.90;;;;;;5040909;28;20040;-53
2023/10/24 05:35:49;;;;;;;1.98;0.80;;;12.90;99.90;;;;;;5044844;28;20025;-54
2023/10/24 05:38:15;;;;;;;2.40;0.85;;;12.80;99.90;;;;;;5051905;28;20025;-52
2023/10/24 05:40:43;;;;;;;1.00;0.60;;;12.90;99.90;;;;;;5050933;28;20024;-50
2023/10/24 05:43:09;;;;;;;1.55;0.80;;;12.80;99.90;;;;;;5050499;28;20033;-54
2023/10/24 05:45:34;;;;;;;2.35;1.45;;;12.90;99.90;;;;;;5041956;28;20114;-54
2023/10/24 05:48:00;;;;;;;0.95;0.65;;;12.90;99.90;;;;;;5053439;28;20039;-54
2023/10/24 05:50:26;;;;;;;2.10;1.17;;;12.90;99.90;;;;;;5046843;28;20040;-54
2023/10/24 05:52:52;;;;;;;2.28;1.10;;;12.80;99.90;;;;;;5042569;28;20206;-55
2023/10/24 05:55:17;;;;;;;1.63;1.08;;;12.80;99.90;;;;;;5049424;28;20330;-52
2023/10/24 05:57:43;;;;;;;1.70;0.88;;;12.70;99.90;;;;;;5021390;28;20064;-55
2023/10/24 06:00:09;;;;;;;3.17;1.00;;;12.70;99.90;;;;;;5046005;28;20102;-51
2023/10/24 06:02:35;;;;;;;5.22;1.30;;;12.80;99.90;;;;;;5042766;28;20013;-54
2023/10/24 06:05:00;;;;;;;2.70;1.23;;;12.80;99.90;;;;;;5046609;28;20504;-55
2023/10/24 06:07:26;;;;;;;2.72;1.30;;;12.80;99.90;;;;;;5047571;28;20029;-54
2023/10/24 06:09:52;;;;;;;3.78;1.35;;;12.70;99.90;;;;;;5044620;28;20044;-55
2023/10/24 06:12:18;;;;;;;1.90;1.00;;;12.80;99.90;;;;;;5041837;28;20450;-53
2023/10/24 06:14:43;;;;;;;2.78;1.33;;;12.80;99.90;;;;;;5041541;28;20029;-54
2023/10/24 06:17:09;;;;;;;1.52;1.00;;;12.80;99.90;;;;;;5030536;28;20032;-55
2023/10/24 06:19:39;;;;;;;2.13;1.10;;;12.80;99.90;;;;;;5039890;28;20029;-55
2023/10/24 06:22:06;;;;;;;2.25;1.38;;;12.80;99.90;;;;;;5038277;28;20033;-54
2023/10/24 06:24:31;;;;;;;2.33;1.10;;;12.80;99.90;;;;;;5044452;28;20029;-55
2023/10/24 06:26:57;;;;;;;1.65;0.98;;;12.80;99.90;;;;;;5041635;28;20136;-54
2023/10/24 06:29:23;;;;;;;3.97;1.10;;;12.80;99.90;;;;;;5034897;28;20071;-55
2023/10/24 06:31:48;;;;;;;3.20;1.00;;;12.90;99.90;;;;;;5025296;28;20401;-54
2023/10/24 06:34:14;;;;;;;1.92;1.10;;;12.80;99.90;;;;;;5026094;28;20112;-52
2023/10/24 06:36:39;;;;;;;1.10;0.90;;;12.80;99.90;;;;;;5042898;28;20021;-55
2023/10/24 06:39:05;;;;;;;1.95;0.88;;;12.70;99.90;;;;;;5046375;28;20032;-55
2023/10/24 06:41:31;;;;;;;2.53;1.20;;;12.70;99.90;;;;;;5040273;28;20021;-59
2023/10/24 06:43:57;;;;;;;2.97;1.00;;;12.80;99.90;;;;;;5040901;28;20021;-57
2023/10/24 06:46:24;;;;;;;3.00;1.23;;;12.80;99.90;;;;;;5043615;28;20029;-52
2023/10/24 06:48:50;;;;;;;1.40;1.00;;;12.90;99.90;;;;;;5045737;28;20029;-54
2023/10/24 06:51:16;;;;;;;1.92;1.08;;;12.90;99.90;;;;;;5043138;28;20040;-54
2023/10/24 06:53:42;;;;;;;1.58;1.00;;;13.00;99.90;;;;;;5038448;28;20032;-51
2023/10/24 06:56:08;;;;;;;3.55;0.98;;;12.90;99.90;;;;;;5041794;28;20416;-51
2023/10/24 06:58:33;;;;;;;4.75;1.70;;;12.90;99.90;;;;;;5044517;28;20434;-51
2023/10/24 07:00:59;;;;;;;9.30;3.28;;;13.00;99.90;;;;;;5046881;28;20017;-52
2023/10/24 07:03:25;;;;;;;2.80;1.73;;;13.00;99.90;;;;;;5051098;28;20150;-52
2023/10/24 07:05:51;;;;;;;5.50;2.85;;;13.10;99.90;;;;;;5045163;28;20166;-54
2023/10/24 07:08:17;;;;;;;2.00;1.10;;;13.10;99.90;;;;;;5018797;28;20494;-54
2023/10/24 07:10:43;;;;;;;2.17;1.10;;;13.00;99.90;;;;;;5039247;28;20038;-53
2023/10/24 07:13:10;;;;;;;2.08;0.90;;;13.00;99.90;;;;;;5040560;28;20036;-55
2023/10/24 07:15:36;;;;;;;1.58;0.77;;;13.00;99.90;;;;;;5028394;28;20037;-52
2023/10/24 07:18:01;;;;;;;2.17;0.80;;;12.90;99.90;;;;;;5041666;28;20028;-54
2023/10/24 07:20:27;;;;;;;2.80;0.90;;;12.90;99.90;;;;;;5039054;28;20523;-51
2023/10/24 07:22:52;;;;;;;5.50;1.20;;;12.80;99.90;;;;;;5025210;28;20040;-54
2023/10/24 07:25:18;;;;;;;1.38;0.90;;;12.90;99.90;;;;;;5034237;28;20433;-53
2023/10/24 07:27:44;;;;;;;1.15;0.70;;;12.80;99.90;;;;;;5038881;28;20021;-54
2023/10/24 07:30:10;;;;;;;1.20;0.80;;;12.80;99.90;;;;;;5038499;28;20331;-55
2023/10/24 07:32:35;;;;;;;1.75;1.00;;;12.80;99.90;;;;;;5042903;28;20442;-54
2023/10/24 07:35:01;;;;;;;2.70;1.17;;;12.90;99.90;;;;;;5038865;28;20039;-54
2023/10/24 07:37:28;;;;;;;1.65;0.90;;;12.90;99.90;;;;;;5035008;28;20033;-55
2023/10/24 07:39:54;;;;;;;3.15;1.20;;;12.90;99.90;;;;;;5046344;28;20049;-53
2023/10/24 07:42:20;;;;;;;4.03;1.00;;;12.90;99.90;;;;;;5026356;28;20051;-52
2023/10/24 07:44:46;;;;;;;1.85;0.90;;;12.80;99.90;;;;;;5059611;28;20032;-53
2023/10/24 07:47:12;;;;;;;3.22;1.42;;;12.80;99.90;;;;;;5031890;28;20060;-53
2023/10/24 07:49:38;;;;;;;2.28;1.10;;;12.80;99.90;;;;;;5043531;28;20079;-52
2023/10/24 07:52:06;;;;;;;2.10;1.30;;;12.80;99.90;;;;;;5041630;28;20041;-49
2023/10/24 07:54:34;;;;;;;1.98;1.02;;;12.80;99.90;;;;;;5051496;28;20060;-52
2023/10/24 07:57:00;;;;;;;3.45;1.48;;;12.70;99.90;;;;;;5029498;28;20038;-53
2023/10/24 07:59:26;;;;;;;3.53;1.50;;;12.80;99.90;;;;;;5036476;28;20033;-51
2023/10/24 08:01:51;;;;;;;2.20;1.15;;;12.80;99.90;;;;;;5038158;28;20021;-53
2023/10/24 08:04:17;;;;;;;4.10;1.35;;;12.90;99.90;;;;;;5041135;28;20037;-55
2023/10/24 08:06:42;;;;;;;4.18;1.00;;;12.80;99.90;;;;;;5039907;28;20235;-52
2023/10/24 08:09:08;;;;;;;4.60;1.25;;;12.80;99.90;;;;;;5039565;28;20029;-55
2023/10/24 08:11:34;;;;;;;1.65;0.98;;;12.80;99.90;;;;;;5033062;28;20552;-54
2023/10/24 08:13:59;;;;;;;0.90;0.68;;;12.80;99.90;;;;;;5044308;28;20033;-52
2023/10/24 08:16:25;;;;;;;1.67;1.00;;;12.80;99.90;;;;;;5043791;28;20635;-54
2023/10/24 08:18:51;;;;;;;1.73;0.98;;;12.70;99.90;;;;;;5041614;28;20082;-53
2023/10/24 08:21:16;;;;;;;2.08;0.80;;;12.80;99.90;;;;;;5032418;28;20040;-51
2023/10/24 08:23:42;;;;;;;1.60;1.10;;;12.80;99.90;;;;;;5032896;28;20024;-51
2023/10/24 08:26:07;;;;;;;2.90;0.90;;;12.80;99.90;;;;;;5034159;28;20120;-52
2023/10/24 08:28:33;;;;;;;2.45;1.20;;;12.80;99.90;;;;;;5043914;28;20031;-54
2023/10/24 08:30:59;;;;;;;1.52;0.75;;;12.80;99.90;;;;;;5035032;28;20143;-53
2023/10/24 08:33:24;;;;;;;1.20;0.80;;;12.80;99.90;;;;;;5042567;28;20037;-54
2023/10/24 08:35:50;;;;;;;11.07;5.05;;;12.90;99.90;;;;;;5030936;28;20037;-49
2023/10/24 08:38:16;;;;;;;23.33;11.98;;;12.90;99.90;;;;;;5032662;28;20067;-52
2023/10/24 08:40:42;;;;;;;5.43;2.72;;;12.90;99.90;;;;;;5032469;28;20025;-54
2023/10/24 08:43:10;;;;;;;7.60;4.05;;;13.00;99.90;;;;;;5035380;28;20025;-54
2023/10/24 08:45:37;;;;;;;7.88;3.17;;;13.00;99.90;;;;;;5038493;28;20056;-49
2023/10/24 08:48:06;;;;;;;3.13;0.82;;;13.00;99.90;;;;;;5037919;28;20045;-49
2023/10/24 08:50:35;;;;;;;1.92;0.63;;;13.00;99.90;;;;;;5033502;28;20087;-49
2023/10/24 08:53:01;;;;;;;1.40;0.70;;;13.00;99.90;;;;;;5039947;28;20028;-49
2023/10/24 08:55:28;;;;;;;0.98;0.45;;;13.00;99.90;;;;;;5029582;28;20390;-51
2023/10/24 08:57:57;;;;;;;0.95;0.60;;;13.00;99.90;;;;;;5042984;28;20537;-54
2023/10/24 09:00:23;;;;;;;1.20;0.60;;;13.00;99.90;;;;;;5039203;28;20025;-53
2023/10/24 09:02:48;;;;;;;1.42;0.80;;;13.00;99.90;;;;;;5034542;28;20079;-49
2023/10/24 09:05:14;;;;;;;3.75;0.80;;;13.00;99.90;;;;;;5032535;28;20018;-51
2023/10/24 09:07:40;;;;;;;3.67;1.88;;;13.10;99.90;;;;;;5014723;28;20036;-53
2023/10/24 09:10:07;;;;;;;1.80;1.20;;;13.10;99.90;;;;;;5038632;28;20025;-49
2023/10/24 09:12:34;;;;;;;3.17;0.90;;;13.10;99.90;;;;;;5036245;28;20608;-50
2023/10/24 09:15:00;;;;;;;1.85;0.80;;;13.10;99.90;;;;;;5032769;28;20036;-52
2023/10/24 09:17:26;;;;;;;1.75;0.90;;;13.20;99.90;;;;;;5030102;28;20137;-52
2023/10/24 09:19:55;;;;;;;4.43;1.20;;;13.20;99.90;;;;;;5038006;28;20104;-55
2023/10/24 09:22:21;;;;;;;2.05;0.70;;;13.30;99.90;;;;;;5032326;28;20022;-55
2023/10/24 09:24:49;;;;;;;1.45;0.70;;;13.30;99.90;;;;;;5033407;28;20025;-55
2023/10/24 09:27:16;;;;;;;0.95;0.68;;;13.40;99.90;;;;;;5018880;28;20029;-55
2023/10/24 09:29:41;;;;;;;3.42;0.70;;;13.50;99.90;;;;;;5030441;28;20097;-50
2023/10/24 09:32:13;;;;;;;0.65;0.57;;;13.50;99.90;;;;;;5032346;28;20065;-51
2023/10/24 09:34:44;;;;;;;3.35;0.90;;;13.60;99.90;;;;;;5044010;28;20052;-55
2023/10/24 09:37:10;;;;;;;1.38;0.80;;;13.60;99.90;;;;;;5036815;28;20213;-53
2023/10/24 09:39:56;;;;;;;1.52;0.70;;;13.80;99.90;;;;;;5014701;28;20129;-54
2023/10/24 09:42:29;;;;;;;1.05;0.52;;;14.20;99.90;;;;;;5036016;28;20034;-54
2023/10/24 09:44:57;;;;;;;1.45;1.08;;;14.40;99.90;;;;;;5035074;28;20470;-55
2023/10/24 09:47:24;;;;;;;4.75;0.90;;;14.40;99.90;;;;;;5036197;28;20537;-51
2023/10/24 09:49:51;;;;;;;1.85;0.95;;;14.30;99.90;;;;;;5034354;28;20022;-55
2023/10/24 09:52:19;;;;;;;1.63;0.60;;;14.40;99.90;;;;;;5032738;28;20032;-51
2023/10/24 09:54:47;;;;;;;2.22;0.80;;;14.70;99.90;;;;;;5040672;28;20030;-50
2023/10/24 09:57:15;;;;;;;1.95;0.70;;;15.00;99.90;;;;;;5040767;28;20424;-51
2023/10/24 09:59:42;;;;;;;1.38;0.68;;;15.30;99.90;;;;;;5034469;28;20116;-53
2023/10/24 10:02:09;;;;;;;4.93;1.00;;;15.30;99.90;;;;;;5036611;28;20017;-53
2023/10/24 10:04:37;;;;;;;2.42;1.00;;;15.30;99.90;;;;;;5033561;28;20128;-51
2023/10/24 10:07:03;;;;;;;2.20;1.00;;;15.20;99.90;;;;;;5017036;28;20462;-54
2023/10/24 10:09:29;;;;;;;2.90;1.10;;;15.00;99.90;;;;;;5030127;28;20029;-53
2023/10/24 10:11:57;;;;;;;1.10;0.80;;;15.10;99.90;;;;;;5044264;28;20032;-53
2023/10/24 10:14:41;;;;;;;2.60;0.70;;;15.00;99.90;;;;;;5026638;28;20044;-51
2023/10/24 10:17:59;;;;;;;1.90;0.93;;;15.00;99.90;;;;;;5031505;28;20112;-54
2023/10/24 10:20:42;;;;;;;0.95;0.70;;;15.10;99.90;;;;;;5017280;28;20040;-52
2023/10/24 10:23:45;;;;;;;3.15;0.70;;;15.20;99.90;;;;;;5042060;28;20108;-50
2023/10/24 10:26:17;;;;;;;3.28;1.10;;;15.10;99.90;;;;;;5031914;28;20104;-53
2023/10/24 10:29:12;;;;;;;1.58;0.73;;;15.20;99.90;;;;;;5036416;28;20033;-55
2023/10/24 10:32:09;;;;;;;3.00;1.00;;;15.10;99.90;;;;;;5039199;28;20385;-53
2023/10/24 10:34:36;;;;;;;1.00;0.80;;;15.20;99.90;;;;;;5010881;28;20033;-53
2023/10/24 10:37:03;;;;;;;3.17;0.80;;;15.20;99.90;;;;;;5035446;28;21337;-53
2023/10/24 10:39:31;;;;;;;3.65;0.80;;;15.20;99.90;;;;;;5039413;28;20114;-54
2023/10/24 10:41:57;;;;;;;1.17;0.80;;;15.20;99.90;;;;;;5035226;28;20033;-53
2023/10/24 10:44:42;;;;;;;1.42;0.80;;;15.20;99.90;;;;;;5027985;28;20021;-55
2023/10/24 10:47:11;;;;;;;1.30;0.80;;;15.00;99.90;;;;;;5010655;28;20057;-52
2023/10/24 10:49:46;;;;;;;1.02;0.70;;;15.00;99.90;;;;;;5031854;28;20108;-55
2023/10/24 10:52:37;;;;;;;1.35;0.75;;;15.00;99.90;;;;;;5031042;28;20105;-54
2023/10/24 10:55:19;;;;;;;2.03;0.70;;;14.80;99.90;;;;;;5030212;28;20048;-54
2023/10/24 10:58:01;;;;;;;1.10;0.70;;;14.70;99.90;;;;;;5036532;28;20454;-56
2023/10/24 11:00:37;;;;;;;1.73;0.80;;;14.70;99.90;;;;;;5030862;28;20029;-55
2023/10/24 11:03:36;;;;;;;2.55;0.80;;;14.70;99.90;;;;;;5013538;28;20124;-55
2023/10/24 11:06:08;;;;;;;1.33;0.90;;;14.60;99.90;;;;;;5031222;28;20068;-55
2023/10/24 11:08:34;;;;;;;1.75;0.80;;;14.60;99.90;;;;;;5031975;28;20029;-55
2023/10/24 11:11:00;;;;;;;2.35;0.70;;;14.50;99.90;;;;;;5032110;28;20044;-54
2023/10/24 11:13:42;;;;;;;2.22;0.90;;;14.50;99.90;;;;;;5030505;28;20036;-55
2023/10/24 11:16:12;;;;;;;0.60;0.60;;;14.50;99.90;;;;;;5031914;28;21226;-54
2023/10/24 11:18:39;;;;;;;2.00;0.90;;;14.50;99.90;;;;;;5030710;28;20053;-55
2023/10/24 11:21:13;;;;;;;1.27;0.80;;;14.50;99.90;;;;;;5031243;28;20028;-54
2023/10/24 11:23:42;;;;;;;1.15;0.70;;;14.50;99.90;;;;;;5029037;28;20079;-54
2023/10/24 11:26:09;;;;;;;1.83;0.70;;;14.50;99.90;;;;;;5029364;28;20383;-53
2023/10/24 11:28:35;;;;;;;1.88;0.85;;;14.50;99.90;;;;;;5030824;28;20442;-51
2023/10/24 11:31:21;;;;;;;1.67;0.85;;;14.40;99.90;;;;;;5027414;28;20230;-53
2023/10/24 11:33:48;;;;;;;3.50;1.02;;;14.40;99.90;;;;;;5029055;28;20974;-51
2023/10/24 11:36:14;;;;;;;1.98;0.80;;;14.40;99.90;;;;;;5028415;28;20040;-54
2023/10/24 11:38:39;;;;;;;1.00;0.70;;;14.30;99.90;;;;;;5032646;28;20466;-54
2023/10/24 11:41:05;;;;;;;2.80;0.73;;;14.30;99.90;;;;;;5029328;28;20037;-53
2023/10/24 11:43:32;;;;;;;1.27;0.80;;;14.30;99.90;;;;;;5030989;28;20021;-53
2023/10/24 11:45:58;;;;;;;2.47;0.98;;;14.40;99.90;;;;;;5029519;28;20438;-54
2023/10/24 11:48:24;;;;;;;2.28;0.90;;;14.30;99.90;;;;;;5034529;28;20032;-53
2023/10/24 11:50:50;;;;;;;3.88;1.40;;;14.40;99.90;;;;;;5037029;28;20033;-54
2023/10/24 11:53:20;;;;;;;1.30;0.73;;;14.40;99.90;;;;;;5038871;28;20036;-55
2023/10/24 11:55:48;;;;;;;1.52;1.30;;;14.40;99.90;;;;;;5037299;28;20039;-51
2023/10/24 11:58:13;;;;;;;5.15;1.08;;;14.40;99.90;;;;;;5033560;28;20021;-54
2023/10/24 12:00:42;;;;;;;3.28;0.90;;;14.30;99.90;;;;;;5035157;28;20478;-55
2023/10/24 12:03:08;;;;;;;1.67;0.90;;;14.30;99.90;;;;;;5035800;28;20026;-56
2023/10/24 12:05:35;;;;;;;2.00;1.15;;;14.30;99.90;;;;;;5046250;28;20037;-52
2023/10/24 12:08:02;;;;;;;3.60;1.30;;;14.20;99.90;;;;;;5036790;28;20091;-54
2023/10/24 12:10:29;;;;;;;4.47;1.50;;;14.20;99.90;;;;;;5034854;28;20040;-56
2023/10/24 12:12:57;;;;;;;4.15;1.55;;;14.20;99.90;;;;;;5040526;28;20033;-55
2023/10/24 12:15:26;;;;;;;3.45;1.90;;;14.10;99.90;;;;;;5033362;28;20147;-54
2023/10/24 12:17:52;;;;;;;;;;;14.00;99.90;;;;;;5047592;28;20044;-52
2023/10/24 12:20:20;;;;;;;4.80;1.90;;;13.90;99.90;;;;;;5032280;28;19917;-52
2023/10/24 12:22:47;;;;;;;2.70;1.45;;;13.90;99.90;;;;;;5036770;28;20025;-52
2023/10/24 12:25:17;;;;;;;2.50;1.20;;;13.80;99.90;;;;;;5024952;28;20025;-51
2023/10/24 12:27:45;;;;;;;2.22;1.20;;;13.70;99.90;;;;;;5036213;28;20431;-55
2023/10/24 12:30:10;;;;;;;1.98;1.20;;;13.50;99.90;;;;;;5020163;28;20173;-52
2023/10/24 12:32:36;;;;;;;2.17;1.20;;;13.40;99.90;;;;;;5042130;28;20037;-53
2023/10/24 12:35:03;;;;;;;5.32;1.88;;;13.40;99.90;;;;;;5040824;28;20093;-52
2023/10/24 12:37:29;;;;;;;5.63;2.30;;;13.30;99.90;;;;;;5055482;28;20021;-52
2023/10/24 12:39:54;;;;;;;2.60;1.55;;;13.30;99.90;;;;;;5037283;28;20056;-51
2023/10/24 12:42:20;;;;;;;3.58;1.52;;;13.20;99.90;;;;;;5041067;28;20044;-53
2023/10/24 12:44:45;;;;;;;3.25;1.27;;;13.20;99.90;;;;;;5032616;28;20043;-54
2023/10/24 12:47:11;;;;;;;2.55;1.63;;;13.10;99.90;;;;;;5044662;28;20071;-54
2023/10/24 12:49:37;;;;;;;2.72;1.65;;;13.10;99.90;;;;;;5047583;28;20033;-53